sensor_id;sensor_type;location;lat;lon;timestamp;P1;durP1;ratioP1;P2;durP2;ratioP2
47772;SDS011;33534;51.028;13.716;2023-02-02T00:01:27;9.75;;;2.83;;
47772;SDS011;33534;51.028;13.716;2023-02-02T00:03:54;9.13;;;2.67;;
47772;SDS011;33534;51.028;13.716;2023-02-02T00:06:21;9.80;;;3.70;;
47772;SDS011;33534;51.028;13.716;2023-02-02T00:08:48;10.45;;;3.95;;
47772;SDS011;33534;51.028;13.716;2023-02-02T00:11:16;10.23;;;2.15;;
47772;SDS011;33534;51.028;13.716;2023-02-02T00:13:42;13.27;;;3.65;;
47772;SDS011;33534;51.028;13.716;2023-02-02T00:18:53;11.05;;;2.67;;
47772;SDS011;33534;51.028;13.716;2023-02-02T00:21:20;9.30;;;2.67;;
47772;SDS011;33534;51.028;13.716;2023-02-02T00:23:46;11.50;;;2.88;;
47772;SDS011;33534;51.028;13.716;2023-02-02T00:26:12;9.90;;;3.90;;
47772;SDS011;33534;51.028;13.716;2023-02-02T00:28:38;10.07;;;3.53;;
47772;SDS011;33534;51.028;13.716;2023-02-02T00:31:05;9.80;;;2.22;;
47772;SDS011;33534;51.028;13.716;2023-02-02T00:33:31;10.13;;;2.65;;
47772;SDS011;33534;51.028;13.716;2023-02-02T00:35:57;20.13;;;5.75;;
47772;SDS011;33534;51.028;13.716;2023-02-02T00:38:23;19.48;;;7.22;;
47772;SDS011;33534;51.028;13.716;2023-02-02T00:40:49;9.73;;;3.20;;
47772;SDS011;33534;51.028;13.716;2023-02-02T00:43:15;18.48;;;6.57;;
47772;SDS011;33534;51.028;13.716;2023-02-02T00:45:41;12.13;;;3.40;;
47772;SDS011;33534;51.028;13.716;2023-02-02T00:48:07;12.25;;;3.20;;
47772;SDS011;33534;51.028;13.716;2023-02-02T00:50:35;19.92;;;7.18;;
47772;SDS011;33534;51.028;13.716;2023-02-02T00:53:01;16.58;;;3.70;;
47772;SDS011;33534;51.028;13.716;2023-02-02T00:55:27;14.57;;;2.67;;
47772;SDS011;33534;51.028;13.716;2023-02-02T00:57:53;14.00;;;3.28;;
47772;SDS011;33534;51.028;13.716;2023-02-02T01:00:20;12.02;;;2.63;;
47772;SDS011;33534;51.028;13.716;2023-02-02T01:02:48;10.07;;;3.08;;
47772;SDS011;33534;51.028;13.716;2023-02-02T01:05:14;6.75;;;2.20;;
47772;SDS011;33534;51.028;13.716;2023-02-02T01:07:40;19.50;;;7.78;;
47772;SDS011;33534;51.028;13.716;2023-02-02T01:10:08;12.20;;;3.50;;
47772;SDS011;33534;51.028;13.716;2023-02-02T01:12:35;11.75;;;2.50;;
47772;SDS011;33534;51.028;13.716;2023-02-02T01:15:02;14.85;;;4.03;;
47772;SDS011;33534;51.028;13.716;2023-02-02T01:17:28;7.28;;;2.40;;
47772;SDS011;33534;51.028;13.716;2023-02-02T01:19:54;11.00;;;1.88;;
47772;SDS011;33534;51.028;13.716;2023-02-02T01:22:20;12.82;;;2.83;;
47772;SDS011;33534;51.028;13.716;2023-02-02T01:24:46;12.48;;;2.92;;
47772;SDS011;33534;51.028;13.716;2023-02-02T01:27:12;14.10;;;3.42;;
47772;SDS011;33534;51.028;13.716;2023-02-02T01:29:38;16.17;;;2.03;;
47772;SDS011;33534;51.028;13.716;2023-02-02T01:32:04;15.30;;;2.40;;
47772;SDS011;33534;51.028;13.716;2023-02-02T01:34:30;10.57;;;3.00;;
47772;SDS011;33534;51.028;13.716;2023-02-02T01:36:56;11.07;;;1.95;;
47772;SDS011;33534;51.028;13.716;2023-02-02T01:39:22;16.08;;;6.03;;
47772;SDS011;33534;51.028;13.716;2023-02-02T01:41:48;15.57;;;4.65;;
47772;SDS011;33534;51.028;13.716;2023-02-02T01:46:59;13.55;;;4.00;;
47772;SDS011;33534;51.028;13.716;2023-02-02T01:49:25;15.57;;;3.33;;
47772;SDS011;33534;51.028;13.716;2023-02-02T01:54:22;15.15;;;4.32;;
47772;SDS011;33534;51.028;13.716;2023-02-02T01:59:14;7.78;;;1.95;;
47772;SDS011;33534;51.028;13.716;2023-02-02T02:01:41;13.80;;;4.20;;
47772;SDS011;33534;51.028;13.716;2023-02-02T02:04:08;17.38;;;3.38;;
47772;SDS011;33534;51.028;13.716;2023-02-02T02:06:35;11.43;;;2.25;;
47772;SDS011;33534;51.028;13.716;2023-02-02T02:09:02;9.98;;;2.72;;
47772;SDS011;33534;51.028;13.716;2023-02-02T02:11:28;12.38;;;2.55;;
47772;SDS011;33534;51.028;13.716;2023-02-02T02:13:56;13.13;;;3.25;;
47772;SDS011;33534;51.028;13.716;2023-02-02T02:22:38;11.40;;;2.95;;
47772;SDS011;33534;51.028;13.716;2023-02-02T02:33:28;14.38;;;2.50;;
47772;SDS011;33534;51.028;13.716;2023-02-02T02:41:21;11.65;;;3.78;;
47772;SDS011;33534;51.028;13.716;2023-02-02T02:43:54;13.35;;;2.75;;
47772;SDS011;33534;51.028;13.716;2023-02-02T02:46:22;14.25;;;3.42;;
47772;SDS011;33534;51.028;13.716;2023-02-02T02:48:48;9.65;;;2.13;;
47772;SDS011;33534;51.028;13.716;2023-02-02T02:53:59;11.73;;;2.20;;
47772;SDS011;33534;51.028;13.716;2023-02-02T02:56:32;9.23;;;2.60;;
47772;SDS011;33534;51.028;13.716;2023-02-02T03:01:33;8.98;;;2.20;;
47772;SDS011;33534;51.028;13.716;2023-02-02T03:11:23;12.27;;;3.15;;
47772;SDS011;33534;51.028;13.716;2023-02-02T03:13:49;11.02;;;3.10;;
47772;SDS011;33534;51.028;13.716;2023-02-02T03:16:15;12.95;;;3.15;;
47772;SDS011;33534;51.028;13.716;2023-02-02T03:18:41;8.77;;;2.63;;
47772;SDS011;33534;51.028;13.716;2023-02-02T03:21:15;8.82;;;2.15;;
47772;SDS011;33534;51.028;13.716;2023-02-02T03:23:50;17.15;;;3.20;;
47772;SDS011;33534;51.028;13.716;2023-02-02T03:26:16;11.88;;;2.97;;
47772;SDS011;33534;51.028;13.716;2023-02-02T03:28:42;13.70;;;4.28;;
47772;SDS011;33534;51.028;13.716;2023-02-02T03:31:08;12.45;;;3.15;;
47772;SDS011;33534;51.028;13.716;2023-02-02T03:33:34;6.75;;;2.33;;
47772;SDS011;33534;51.028;13.716;2023-02-02T03:36:01;15.65;;;3.40;;
47772;SDS011;33534;51.028;13.716;2023-02-02T03:38:27;11.63;;;2.75;;
47772;SDS011;33534;51.028;13.716;2023-02-02T03:40:53;11.18;;;2.05;;
47772;SDS011;33534;51.028;13.716;2023-02-02T03:43:23;11.98;;;4.50;;
47772;SDS011;33534;51.028;13.716;2023-02-02T03:45:58;12.77;;;3.58;;
47772;SDS011;33534;51.028;13.716;2023-02-02T03:48:25;8.50;;;2.25;;
47772;SDS011;33534;51.028;13.716;2023-02-02T03:50:51;12.60;;;2.47;;
47772;SDS011;33534;51.028;13.716;2023-02-02T03:53:17;10.57;;;2.42;;
47772;SDS011;33534;51.028;13.716;2023-02-02T03:55:43;11.93;;;2.95;;
47772;SDS011;33534;51.028;13.716;2023-02-02T03:58:09;12.52;;;2.63;;
47772;SDS011;33534;51.028;13.716;2023-02-02T04:00:35;14.75;;;3.78;;
47772;SDS011;33534;51.028;13.716;2023-02-02T04:03:01;17.88;;;3.42;;
47772;SDS011;33534;51.028;13.716;2023-02-02T04:05:27;15.95;;;3.20;;
47772;SDS011;33534;51.028;13.716;2023-02-02T04:07:53;10.60;;;1.77;;
47772;SDS011;33534;51.028;13.716;2023-02-02T04:10:19;13.38;;;2.65;;
47772;SDS011;33534;51.028;13.716;2023-02-02T04:12:45;11.95;;;3.53;;
47772;SDS011;33534;51.028;13.716;2023-02-02T04:15:11;16.48;;;2.70;;
47772;SDS011;33534;51.028;13.716;2023-02-02T04:17:37;12.73;;;3.15;;
47772;SDS011;33534;51.028;13.716;2023-02-02T04:20:04;17.02;;;3.40;;
47772;SDS011;33534;51.028;13.716;2023-02-02T04:22:30;14.48;;;2.97;;
47772;SDS011;33534;51.028;13.716;2023-02-02T04:24:56;11.73;;;2.30;;
47772;SDS011;33534;51.028;13.716;2023-02-02T04:27:22;13.85;;;2.75;;
47772;SDS011;33534;51.028;13.716;2023-02-02T04:29:48;14.90;;;3.65;;
47772;SDS011;33534;51.028;13.716;2023-02-02T04:32:14;10.63;;;2.42;;
47772;SDS011;33534;51.028;13.716;2023-02-02T04:34:41;14.13;;;3.00;;
47772;SDS011;33534;51.028;13.716;2023-02-02T04:37:07;13.63;;;3.22;;
47772;SDS011;33534;51.028;13.716;2023-02-02T04:39:34;15.90;;;2.92;;
47772;SDS011;33534;51.028;13.716;2023-02-02T04:42:00;11.82;;;2.30;;
47772;SDS011;33534;51.028;13.716;2023-02-02T04:44:26;12.32;;;2.97;;
47772;SDS011;33534;51.028;13.716;2023-02-02T04:46:52;16.15;;;4.05;;
47772;SDS011;33534;51.028;13.716;2023-02-02T04:49:18;20.95;;;6.72;;
47772;SDS011;33534;51.028;13.716;2023-02-02T04:51:45;18.10;;;3.55;;
47772;SDS011;33534;51.028;13.716;2023-02-02T04:54:12;8.45;;;2.13;;
47772;SDS011;33534;51.028;13.716;2023-02-02T04:56:38;15.68;;;3.00;;
47772;SDS011;33534;51.028;13.716;2023-02-02T04:59:04;15.85;;;2.50;;
47772;SDS011;33534;51.028;13.716;2023-02-02T05:01:30;13.07;;;2.67;;
47772;SDS011;33534;51.028;13.716;2023-02-02T05:03:56;9.15;;;1.73;;
47772;SDS011;33534;51.028;13.716;2023-02-02T05:06:22;12.90;;;2.78;;
47772;SDS011;33534;51.028;13.716;2023-02-02T05:08:48;18.33;;;3.03;;
47772;SDS011;33534;51.028;13.716;2023-02-02T05:11:16;14.48;;;2.83;;
47772;SDS011;33534;51.028;13.716;2023-02-02T05:13:45;14.63;;;2.85;;
47772;SDS011;33534;51.028;13.716;2023-02-02T05:16:12;13.35;;;2.45;;
47772;SDS011;33534;51.028;13.716;2023-02-02T05:18:38;10.10;;;2.17;;
47772;SDS011;33534;51.028;13.716;2023-02-02T05:21:04;12.32;;;4.22;;
47772;SDS011;33534;51.028;13.716;2023-02-02T05:23:30;11.30;;;3.17;;
47772;SDS011;33534;51.028;13.716;2023-02-02T05:25:56;15.32;;;2.83;;
47772;SDS011;33534;51.028;13.716;2023-02-02T05:28:22;25.33;;;3.15;;
47772;SDS011;33534;51.028;13.716;2023-02-02T05:30:49;18.30;;;3.85;;
47772;SDS011;33534;51.028;13.716;2023-02-02T05:33:15;20.08;;;3.05;;
47772;SDS011;33534;51.028;13.716;2023-02-02T05:35:44;9.65;;;2.70;;
47772;SDS011;33534;51.028;13.716;2023-02-02T05:38:10;13.45;;;3.17;;
47772;SDS011;33534;51.028;13.716;2023-02-02T05:40:36;14.13;;;2.97;;
47772;SDS011;33534;51.028;13.716;2023-02-02T05:43:02;12.50;;;3.53;;
47772;SDS011;33534;51.028;13.716;2023-02-02T05:45:28;15.23;;;3.78;;
47772;SDS011;33534;51.028;13.716;2023-02-02T05:48:00;20.67;;;3.90;;
47772;SDS011;33534;51.028;13.716;2023-02-02T05:50:26;12.90;;;3.88;;
47772;SDS011;33534;51.028;13.716;2023-02-02T05:52:52;14.00;;;3.03;;
47772;SDS011;33534;51.028;13.716;2023-02-02T05:55:18;11.85;;;3.40;;
47772;SDS011;33534;51.028;13.716;2023-02-02T05:57:44;11.18;;;2.78;;
47772;SDS011;33534;51.028;13.716;2023-02-02T06:00:10;15.90;;;3.92;;
47772;SDS011;33534;51.028;13.716;2023-02-02T06:02:37;14.88;;;3.08;;
47772;SDS011;33534;51.028;13.716;2023-02-02T06:05:03;17.00;;;3.10;;
47772;SDS011;33534;51.028;13.716;2023-02-02T06:07:29;16.58;;;3.30;;
47772;SDS011;33534;51.028;13.716;2023-02-02T06:09:55;9.68;;;2.95;;
47772;SDS011;33534;51.028;13.716;2023-02-02T06:12:21;12.93;;;3.08;;
47772;SDS011;33534;51.028;13.716;2023-02-02T06:14:47;12.65;;;3.58;;
47772;SDS011;33534;51.028;13.716;2023-02-02T06:17:13;17.33;;;2.97;;
47772;SDS011;33534;51.028;13.716;2023-02-02T06:19:39;13.55;;;3.35;;
47772;SDS011;33534;51.028;13.716;2023-02-02T06:22:05;15.48;;;3.85;;
47772;SDS011;33534;51.028;13.716;2023-02-02T06:24:31;17.70;;;2.90;;
47772;SDS011;33534;51.028;13.716;2023-02-02T06:26:57;11.60;;;2.35;;
47772;SDS011;33534;51.028;13.716;2023-02-02T06:29:23;13.98;;;2.70;;
47772;SDS011;33534;51.028;13.716;2023-02-02T06:31:49;11.05;;;3.33;;
47772;SDS011;33534;51.028;13.716;2023-02-02T06:34:15;20.25;;;3.42;;
47772;SDS011;33534;51.028;13.716;2023-02-02T06:36:41;11.60;;;2.88;;
47772;SDS011;33534;51.028;13.716;2023-02-02T06:39:07;14.85;;;2.85;;
47772;SDS011;33534;51.028;13.716;2023-02-02T06:41:34;13.43;;;3.30;;
47772;SDS011;33534;51.028;13.716;2023-02-02T06:44:00;15.68;;;3.22;;
47772;SDS011;33534;51.028;13.716;2023-02-02T06:46:26;17.77;;;3.50;;
47772;SDS011;33534;51.028;13.716;2023-02-02T06:48:52;16.70;;;3.38;;
47772;SDS011;33534;51.028;13.716;2023-02-02T06:51:19;15.00;;;2.53;;
47772;SDS011;33534;51.028;13.716;2023-02-02T06:53:48;16.67;;;2.97;;
47772;SDS011;33534;51.028;13.716;2023-02-02T06:56:14;9.60;;;2.33;;
47772;SDS011;33534;51.028;13.716;2023-02-02T06:58:40;15.88;;;3.28;;
47772;SDS011;33534;51.028;13.716;2023-02-02T07:01:07;15.38;;;4.13;;
47772;SDS011;33534;51.028;13.716;2023-02-02T07:03:35;16.30;;;3.38;;
47772;SDS011;33534;51.028;13.716;2023-02-02T07:06:15;12.55;;;2.88;;
47772;SDS011;33534;51.028;13.716;2023-02-02T07:08:41;16.30;;;3.80;;
47772;SDS011;33534;51.028;13.716;2023-02-02T07:11:08;20.80;;;3.90;;
47772;SDS011;33534;51.028;13.716;2023-02-02T07:13:34;13.88;;;3.15;;
47772;SDS011;33534;51.028;13.716;2023-02-02T07:16:01;13.57;;;3.35;;
47772;SDS011;33534;51.028;13.716;2023-02-02T07:18:27;14.85;;;3.17;;
47772;SDS011;33534;51.028;13.716;2023-02-02T07:20:56;10.55;;;2.22;;
47772;SDS011;33534;51.028;13.716;2023-02-02T07:23:23;19.23;;;3.58;;
47772;SDS011;33534;51.028;13.716;2023-02-02T07:25:58;13.02;;;2.95;;
47772;SDS011;33534;51.028;13.716;2023-02-02T07:28:25;18.33;;;3.67;;
47772;SDS011;33534;51.028;13.716;2023-02-02T07:30:51;15.73;;;3.15;;
47772;SDS011;33534;51.028;13.716;2023-02-02T07:33:19;16.92;;;3.90;;
47772;SDS011;33534;51.028;13.716;2023-02-02T07:35:45;10.02;;;3.55;;
47772;SDS011;33534;51.028;13.716;2023-02-02T07:38:11;16.80;;;3.33;;
47772;SDS011;33534;51.028;13.716;2023-02-02T07:40:37;17.33;;;2.83;;
47772;SDS011;33534;51.028;13.716;2023-02-02T07:43:04;14.10;;;2.72;;
47772;SDS011;33534;51.028;13.716;2023-02-02T07:45:30;14.75;;;3.42;;
47772;SDS011;33534;51.028;13.716;2023-02-02T07:47:56;17.58;;;3.90;;
47772;SDS011;33534;51.028;13.716;2023-02-02T07:50:23;12.48;;;2.47;;
47772;SDS011;33534;51.028;13.716;2023-02-02T07:52:49;17.92;;;2.95;;
47772;SDS011;33534;51.028;13.716;2023-02-02T07:55:15;19.67;;;3.45;;
47772;SDS011;33534;51.028;13.716;2023-02-02T07:57:41;16.55;;;3.05;;
47772;SDS011;33534;51.028;13.716;2023-02-02T08:00:07;14.90;;;2.70;;
47772;SDS011;33534;51.028;13.716;2023-02-02T08:02:36;10.90;;;3.03;;
47772;SDS011;33534;51.028;13.716;2023-02-02T08:05:03;14.60;;;2.58;;
47772;SDS011;33534;51.028;13.716;2023-02-02T08:07:32;14.00;;;2.70;;
47772;SDS011;33534;51.028;13.716;2023-02-02T08:09:58;10.38;;;2.80;;
47772;SDS011;33534;51.028;13.716;2023-02-02T08:12:24;14.80;;;3.30;;
47772;SDS011;33534;51.028;13.716;2023-02-02T08:14:51;15.93;;;4.00;;
47772;SDS011;33534;51.028;13.716;2023-02-02T08:17:17;18.00;;;3.30;;
47772;SDS011;33534;51.028;13.716;2023-02-02T08:19:43;20.85;;;3.17;;
47772;SDS011;33534;51.028;13.716;2023-02-02T08:22:09;15.70;;;3.30;;
47772;SDS011;33534;51.028;13.716;2023-02-02T08:24:35;17.02;;;3.53;;
47772;SDS011;33534;51.028;13.716;2023-02-02T08:27:06;15.68;;;3.60;;
47772;SDS011;33534;51.028;13.716;2023-02-02T08:29:33;20.85;;;3.55;;
47772;SDS011;33534;51.028;13.716;2023-02-02T08:32:00;14.63;;;2.63;;
47772;SDS011;33534;51.028;13.716;2023-02-02T08:34:26;17.20;;;3.22;;
47772;SDS011;33534;51.028;13.716;2023-02-02T08:36:52;16.27;;;3.20;;
47772;SDS011;33534;51.028;13.716;2023-02-02T08:39:18;19.58;;;3.20;;
47772;SDS011;33534;51.028;13.716;2023-02-02T08:41:44;14.95;;;2.85;;
47772;SDS011;33534;51.028;13.716;2023-02-02T08:44:11;14.57;;;3.20;;
47772;SDS011;33534;51.028;13.716;2023-02-02T08:46:38;11.90;;;3.15;;
47772;SDS011;33534;51.028;13.716;2023-02-02T08:49:04;14.45;;;2.95;;
47772;SDS011;33534;51.028;13.716;2023-02-02T08:51:30;18.02;;;4.03;;
47772;SDS011;33534;51.028;13.716;2023-02-02T08:53:56;17.85;;;3.45;;
47772;SDS011;33534;51.028;13.716;2023-02-02T08:56:22;16.67;;;3.85;;
47772;SDS011;33534;51.028;13.716;2023-02-02T08:58:56;13.52;;;2.95;;
47772;SDS011;33534;51.028;13.716;2023-02-02T09:01:26;14.68;;;3.28;;
47772;SDS011;33534;51.028;13.716;2023-02-02T09:03:55;18.17;;;3.55;;
47772;SDS011;33534;51.028;13.716;2023-02-02T09:06:25;22.42;;;5.03;;
47772;SDS011;33534;51.028;13.716;2023-02-02T09:08:52;11.73;;;2.80;;
47772;SDS011;33534;51.028;13.716;2023-02-02T09:11:18;22.67;;;3.67;;
47772;SDS011;33534;51.028;13.716;2023-02-02T09:13:46;18.40;;;4.38;;
47772;SDS011;33534;51.028;13.716;2023-02-02T09:16:15;24.17;;;4.03;;
47772;SDS011;33534;51.028;13.716;2023-02-02T09:18:42;14.73;;;2.75;;
47772;SDS011;33534;51.028;13.716;2023-02-02T09:21:10;19.75;;;3.13;;
47772;SDS011;33534;51.028;13.716;2023-02-02T09:23:37;17.92;;;3.22;;
47772;SDS011;33534;51.028;13.716;2023-02-02T09:26:10;23.23;;;3.85;;
47772;SDS011;33534;51.028;13.716;2023-02-02T09:28:37;17.90;;;2.83;;
47772;SDS011;33534;51.028;13.716;2023-02-02T09:31:03;14.90;;;3.47;;
47772;SDS011;33534;51.028;13.716;2023-02-02T09:33:29;16.23;;;3.28;;
47772;SDS011;33534;51.028;13.716;2023-02-02T09:35:55;21.55;;;3.28;;
47772;SDS011;33534;51.028;13.716;2023-02-02T09:38:21;13.73;;;2.92;;
47772;SDS011;33534;51.028;13.716;2023-02-02T09:40:47;15.32;;;2.67;;
47772;SDS011;33534;51.028;13.716;2023-02-02T09:43:23;15.32;;;2.72;;
47772;SDS011;33534;51.028;13.716;2023-02-02T09:46:05;13.65;;;2.60;;
47772;SDS011;33534;51.028;13.716;2023-02-02T09:48:44;18.90;;;4.38;;
47772;SDS011;33534;51.028;13.716;2023-02-02T09:51:14;16.15;;;3.42;;
47772;SDS011;33534;51.028;13.716;2023-02-02T09:53:49;16.05;;;3.10;;
47772;SDS011;33534;51.028;13.716;2023-02-02T09:56:20;27.63;;;3.80;;
47772;SDS011;33534;51.028;13.716;2023-02-02T09:58:48;18.75;;;3.35;;
47772;SDS011;33534;51.028;13.716;2023-02-02T10:01:20;22.08;;;3.75;;
47772;SDS011;33534;51.028;13.716;2023-02-02T10:04:01;20.42;;;4.38;;
47772;SDS011;33534;51.028;13.716;2023-02-02T10:08:56;16.27;;;3.50;;
47772;SDS011;33534;51.028;13.716;2023-02-02T10:13:50;24.15;;;4.53;;
47772;SDS011;33534;51.028;13.716;2023-02-02T10:16:18;24.40;;;3.88;;
47772;SDS011;33534;51.028;13.716;2023-02-02T10:18:49;17.88;;;3.33;;
47772;SDS011;33534;51.028;13.716;2023-02-02T10:23:48;22.55;;;4.18;;
47772;SDS011;33534;51.028;13.716;2023-02-02T10:26:21;22.88;;;3.78;;
47772;SDS011;33534;51.028;13.716;2023-02-02T10:33:59;18.42;;;3.53;;
47772;SDS011;33534;51.028;13.716;2023-02-02T10:36:30;20.40;;;4.15;;
47772;SDS011;33534;51.028;13.716;2023-02-02T10:39:22;19.08;;;4.40;;
47772;SDS011;33534;51.028;13.716;2023-02-02T10:42:05;20.50;;;4.53;;
47772;SDS011;33534;51.028;13.716;2023-02-02T10:46:59;18.15;;;3.25;;
47772;SDS011;33534;51.028;13.716;2023-02-02T10:54:36;19.73;;;3.83;;
47772;SDS011;33534;51.028;13.716;2023-02-02T10:57:05;16.08;;;3.80;;
47772;SDS011;33534;51.028;13.716;2023-02-02T10:59:34;18.38;;;4.22;;
47772;SDS011;33534;51.028;13.716;2023-02-02T11:02:01;21.48;;;4.78;;
47772;SDS011;33534;51.028;13.716;2023-02-02T11:04:27;14.38;;;3.22;;
47772;SDS011;33534;51.028;13.716;2023-02-02T11:07:12;18.05;;;3.38;;
47772;SDS011;33534;51.028;13.716;2023-02-02T11:09:44;15.13;;;3.20;;
47772;SDS011;33534;51.028;13.716;2023-02-02T11:14:53;16.80;;;3.95;;
47772;SDS011;33534;51.028;13.716;2023-02-02T11:17:24;13.38;;;3.20;;
47772;SDS011;33534;51.028;13.716;2023-02-02T11:19:51;25.52;;;4.75;;
47772;SDS011;33534;51.028;13.716;2023-02-02T11:22:32;23.10;;;4.63;;
47772;SDS011;33534;51.028;13.716;2023-02-02T11:25:00;26.75;;;5.13;;
47772;SDS011;33534;51.028;13.716;2023-02-02T11:29:54;20.00;;;3.90;;
47772;SDS011;33534;51.028;13.716;2023-02-02T11:32:28;18.40;;;3.95;;
47772;SDS011;33534;51.028;13.716;2023-02-02T11:37:27;15.45;;;3.10;;
47772;SDS011;33534;51.028;13.716;2023-02-02T11:39:53;14.30;;;3.83;;
47772;SDS011;33534;51.028;13.716;2023-02-02T11:42:20;12.48;;;2.55;;
47772;SDS011;33534;51.028;13.716;2023-02-02T11:44:56;11.93;;;3.15;;
47772;SDS011;33534;51.028;13.716;2023-02-02T11:47:29;15.27;;;3.78;;
47772;SDS011;33534;51.028;13.716;2023-02-02T11:49:57;13.68;;;3.88;;
47772;SDS011;33534;51.028;13.716;2023-02-02T11:52:25;11.43;;;3.08;;
47772;SDS011;33534;51.028;13.716;2023-02-02T11:54:53;13.18;;;3.65;;
47772;SDS011;33534;51.028;13.716;2023-02-02T11:57:21;11.90;;;3.63;;
47772;SDS011;33534;51.028;13.716;2023-02-02T11:59:49;11.38;;;3.38;;
47772;SDS011;33534;51.028;13.716;2023-02-02T12:04:45;13.73;;;3.58;;
47772;SDS011;33534;51.028;13.716;2023-02-02T12:07:22;23.80;;;3.92;;
47772;SDS011;33534;51.028;13.716;2023-02-02T12:09:49;16.85;;;3.67;;
47772;SDS011;33534;51.028;13.716;2023-02-02T12:17:45;19.40;;;4.38;;
47772;SDS011;33534;51.028;13.716;2023-02-02T12:35:36;21.30;;;4.38;;
47772;SDS011;33534;51.028;13.716;2023-02-02T12:38:13;15.63;;;3.20;;
47772;SDS011;33534;51.028;13.716;2023-02-02T13:09:13;18.45;;;3.55;;
47772;SDS011;33534;51.028;13.716;2023-02-02T13:11:48;10.63;;;2.90;;
47772;SDS011;33534;51.028;13.716;2023-02-02T13:14:31;11.48;;;3.42;;
47772;SDS011;33534;51.028;13.716;2023-02-02T13:17:00;12.02;;;2.80;;
47772;SDS011;33534;51.028;13.716;2023-02-02T13:21:54;21.15;;;3.25;;
47772;SDS011;33534;51.028;13.716;2023-02-02T13:24:23;13.70;;;2.67;;
47772;SDS011;33534;51.028;13.716;2023-02-02T13:26:51;10.10;;;2.45;;
47772;SDS011;33534;51.028;13.716;2023-02-02T13:31:50;14.18;;;2.35;;
47772;SDS011;33534;51.028;13.716;2023-02-02T13:34:21;13.32;;;2.92;;
47772;SDS011;33534;51.028;13.716;2023-02-02T13:36:50;12.82;;;2.70;;
47772;SDS011;33534;51.028;13.716;2023-02-02T13:39:25;13.18;;;3.15;;
47772;SDS011;33534;51.028;13.716;2023-02-02T13:41:54;13.70;;;3.00;;
47772;SDS011;33534;51.028;13.716;2023-02-02T13:44:23;13.43;;;2.95;;
47772;SDS011;33534;51.028;13.716;2023-02-02T13:46:51;10.98;;;3.10;;
47772;SDS011;33534;51.028;13.716;2023-02-02T13:49:37;10.23;;;2.33;;
47772;SDS011;33534;51.028;13.716;2023-02-02T14:05:19;15.77;;;3.65;;
47772;SDS011;33534;51.028;13.716;2023-02-02T14:07:46;15.35;;;3.20;;
47772;SDS011;33534;51.028;13.716;2023-02-02T14:10:21;14.95;;;3.45;;
47772;SDS011;33534;51.028;13.716;2023-02-02T14:12:47;12.05;;;2.75;;
47772;SDS011;33534;51.028;13.716;2023-02-02T14:15:14;12.63;;;2.95;;
47772;SDS011;33534;51.028;13.716;2023-02-02T14:20:09;11.40;;;2.58;;
47772;SDS011;33534;51.028;13.716;2023-02-02T14:22:51;13.30;;;2.50;;
47772;SDS011;33534;51.028;13.716;2023-02-02T14:27:58;15.65;;;3.42;;
47772;SDS011;33534;51.028;13.716;2023-02-02T14:30:26;12.15;;;3.28;;
47772;SDS011;33534;51.028;13.716;2023-02-02T14:32:52;14.73;;;3.13;;
47772;SDS011;33534;51.028;13.716;2023-02-02T14:40:32;9.17;;;2.70;;
47772;SDS011;33534;51.028;13.716;2023-02-02T14:46:15;13.85;;;3.20;;
47772;SDS011;33534;51.028;13.716;2023-02-02T14:48:34;10.70;;;2.80;;
47772;SDS011;33534;51.028;13.716;2023-02-02T14:51:03;10.68;;;2.58;;
47772;SDS011;33534;51.028;13.716;2023-02-02T14:53:37;14.93;;;3.67;;
47772;SDS011;33534;51.028;13.716;2023-02-02T14:56:04;8.32;;;2.50;;
47772;SDS011;33534;51.028;13.716;2023-02-02T14:58:37;16.05;;;3.55;;
47772;SDS011;33534;51.028;13.716;2023-02-02T15:06:53;12.60;;;2.83;;
47772;SDS011;33534;51.028;13.716;2023-02-02T15:14:26;15.13;;;2.55;;
47772;SDS011;33534;51.028;13.716;2023-02-02T15:16:56;9.85;;;3.03;;
47772;SDS011;33534;51.028;13.716;2023-02-02T15:19:36;17.40;;;3.40;;
47772;SDS011;33534;51.028;13.716;2023-02-02T15:24:48;10.98;;;2.75;;
47772;SDS011;33534;51.028;13.716;2023-02-02T15:27:15;11.13;;;2.70;;
47772;SDS011;33534;51.028;13.716;2023-02-02T15:29:43;12.02;;;3.53;;
47772;SDS011;33534;51.028;13.716;2023-02-02T15:32:14;8.80;;;3.13;;
47772;SDS011;33534;51.028;13.716;2023-02-02T15:34:44;15.85;;;3.22;;
47772;SDS011;33534;51.028;13.716;2023-02-02T15:39:41;12.55;;;2.55;;
47772;SDS011;33534;51.028;13.716;2023-02-02T15:42:15;6.80;;;2.80;;
47772;SDS011;33534;51.028;13.716;2023-02-02T15:45:00;11.88;;;4.20;;
47772;SDS011;33534;51.028;13.716;2023-02-02T15:47:30;14.15;;;3.47;;
47772;SDS011;33534;51.028;13.716;2023-02-02T15:49:57;15.13;;;3.55;;
47772;SDS011;33534;51.028;13.716;2023-02-02T15:52:28;18.33;;;3.40;;
47772;SDS011;33534;51.028;13.716;2023-02-02T15:54:57;12.82;;;3.55;;
47772;SDS011;33534;51.028;13.716;2023-02-02T15:59:52;15.32;;;3.58;;
47772;SDS011;33534;51.028;13.716;2023-02-02T16:04:47;15.80;;;3.80;;
47772;SDS011;33534;51.028;13.716;2023-02-02T16:07:26;12.32;;;3.20;;
47772;SDS011;33534;51.028;13.716;2023-02-02T16:09:53;6.75;;;2.70;;
47772;SDS011;33534;51.028;13.716;2023-02-02T16:12:19;13.05;;;4.13;;
47772;SDS011;33534;51.028;13.716;2023-02-02T16:14:47;9.00;;;3.90;;
47772;SDS011;33534;51.028;13.716;2023-02-02T16:19:44;12.70;;;4.25;;
47772;SDS011;33534;51.028;13.716;2023-02-02T16:22:14;11.60;;;4.55;;
47772;SDS011;33534;51.028;13.716;2023-02-02T16:24:48;13.15;;;4.00;;
47772;SDS011;33534;51.028;13.716;2023-02-02T16:27:20;7.72;;;4.40;;
47772;SDS011;33534;51.028;13.716;2023-02-02T16:29:47;14.35;;;4.90;;
47772;SDS011;33534;51.028;13.716;2023-02-02T16:32:24;8.32;;;4.40;;
47772;SDS011;33534;51.028;13.716;2023-02-02T16:34:50;13.98;;;4.70;;
47772;SDS011;33534;51.028;13.716;2023-02-02T16:37:29;14.05;;;4.57;;
47772;SDS011;33534;51.028;13.716;2023-02-02T16:40:15;12.40;;;4.72;;
47772;SDS011;33534;51.028;13.716;2023-02-02T16:42:42;11.90;;;2.83;;
47772;SDS011;33534;51.028;13.716;2023-02-02T16:47:53;12.80;;;2.95;;
47772;SDS011;33534;51.028;13.716;2023-02-02T16:55:20;21.65;;;5.45;;
47772;SDS011;33534;51.028;13.716;2023-02-02T16:57:47;15.43;;;4.18;;
47772;SDS011;33534;51.028;13.716;2023-02-02T17:00:18;13.98;;;2.97;;
47772;SDS011;33534;51.028;13.716;2023-02-02T17:02:46;10.10;;;3.08;;
47772;SDS011;33534;51.028;13.716;2023-02-02T17:07:45;22.67;;;4.13;;
47772;SDS011;33534;51.028;13.716;2023-02-02T17:10:17;25.23;;;5.95;;
47772;SDS011;33534;51.028;13.716;2023-02-02T17:12:45;11.95;;;4.32;;
47772;SDS011;33534;51.028;13.716;2023-02-02T17:17:43;22.15;;;4.55;;
47772;SDS011;33534;51.028;13.716;2023-02-02T17:20:11;18.40;;;4.70;;
47772;SDS011;33534;51.028;13.716;2023-02-02T17:22:41;19.25;;;5.10;;
47772;SDS011;33534;51.028;13.716;2023-02-02T17:25:10;13.57;;;5.03;;
47772;SDS011;33534;51.028;13.716;2023-02-02T17:27:39;17.63;;;6.38;;
47772;SDS011;33534;51.028;13.716;2023-02-02T17:30:05;31.75;;;7.18;;
47772;SDS011;33534;51.028;13.716;2023-02-02T17:32:31;20.90;;;8.32;;
47772;SDS011;33534;51.028;13.716;2023-02-02T17:34:57;30.00;;;9.68;;
47772;SDS011;33534;51.028;13.716;2023-02-02T17:37:23;22.30;;;11.45;;
47772;SDS011;33534;51.028;13.716;2023-02-02T17:39:49;26.70;;;12.68;;